sensor_id;sensor_type;location;lat;lon;timestamp;pressure;altitude;pressure_sealevel;temperature;humidity
9439;BME280;5176;42.622;25.386;2023-03-20T00:00:50;97628.81;;;7.46;77.73
9439;BME280;5176;42.622;25.386;2023-03-20T00:03:19;97631.56;;;7.43;77.79
9439;BME280;5176;42.622;25.386;2023-03-20T00:05:48;97627.31;;;7.40;77.82
9439;BME280;5176;42.622;25.386;2023-03-20T00:08:18;97623.88;;;7.40;77.85
9439;BME280;5176;42.622;25.386;2023-03-20T00:10:48;97632.63;;;7.38;78.04
9439;BME280;5176;42.622;25.386;2023-03-20T00:13:24;97611.94;;;7.34;78.09
9439;BME280;5176;42.622;25.386;2023-03-20T00:15:54;97608.56;;;7.32;77.97
9439;BME280;5176;42.622;25.386;2023-03-20T00:18:24;97607.94;;;7.27;77.67
9439;BME280;5176;42.622;25.386;2023-03-20T00:20:55;97602.97;;;7.21;78.18
9439;BME280;5176;42.622;25.386;2023-03-20T00:23:24;97603.22;;;7.16;78.67
9439;BME280;5176;42.622;25.386;2023-03-20T00:25:54;97600.06;;;7.08;78.87
9439;BME280;5176;42.622;25.386;2023-03-20T00:28:36;97596.13;;;6.99;79.55
9439;BME280;5176;42.622;25.386;2023-03-20T00:31:14;97602.94;;;7.02;79.82
9439;BME280;5176;42.622;25.386;2023-03-20T00:33:45;97595.59;;;6.91;79.93
9439;BME280;5176;42.622;25.386;2023-03-20T00:36:15;97596.22;;;6.77;80.81
9439;BME280;5176;42.622;25.386;2023-03-20T00:38:44;97596.78;;;6.84;80.64
9439;BME280;5176;42.622;25.386;2023-03-20T00:41:21;97590.72;;;6.83;79.98
9439;BME280;5176;42.622;25.386;2023-03-20T00:43:56;97584.88;;;6.78;80.10
9439;BME280;5176;42.622;25.386;2023-03-20T00:46:27;97587.13;;;6.86;79.75
9439;BME280;5176;42.622;25.386;2023-03-20T00:48:56;97586.38;;;6.84;79.86
9439;BME280;5176;42.622;25.386;2023-03-20T00:51:26;97583.75;;;6.84;80.49
9439;BME280;5176;42.622;25.386;2023-03-20T00:53:55;97574.72;;;6.72;80.23
9439;BME280;5176;42.622;25.386;2023-03-20T00:56:31;97586.13;;;6.70;80.50
9439;BME280;5176;42.622;25.386;2023-03-20T00:59:03;97568.75;;;6.48;80.83
9439;BME280;5176;42.622;25.386;2023-03-20T01:01:33;97569.91;;;6.43;82.06
9439;BME280;5176;42.622;25.386;2023-03-20T01:04:04;97564.44;;;6.49;81.39
9439;BME280;5176;42.622;25.386;2023-03-20T01:06:37;97561.28;;;6.41;81.55
9439;BME280;5176;42.622;25.386;2023-03-20T01:09:07;97560.25;;;6.45;81.57
9439;BME280;5176;42.622;25.386;2023-03-20T01:11:37;97558.34;;;6.48;81.18
9439;BME280;5176;42.622;25.386;2023-03-20T01:14:13;97556.63;;;6.49;81.29
9439;BME280;5176;42.622;25.386;2023-03-20T01:16:42;97557.56;;;6.46;81.49
9439;BME280;5176;42.622;25.386;2023-03-20T01:19:13;97558.34;;;6.48;81.36
9439;BME280;5176;42.622;25.386;2023-03-20T01:21:42;97553.28;;;6.45;81.52
9439;BME280;5176;42.622;25.386;2023-03-20T01:24:11;97546.81;;;6.34;81.33
9439;BME280;5176;42.622;25.386;2023-03-20T01:26:41;97545.53;;;6.23;81.64
9439;BME280;5176;42.622;25.386;2023-03-20T01:29:17;97534.78;;;6.11;82.48
9439;BME280;5176;42.622;25.386;2023-03-20T01:31:46;97536.53;;;6.10;82.80
9439;BME280;5176;42.622;25.386;2023-03-20T01:34:17;97528.41;;;6.18;82.87
9439;BME280;5176;42.622;25.386;2023-03-20T01:36:49;97531.53;;;6.26;82.98
9439;BME280;5176;42.622;25.386;2023-03-20T01:39:19;97527.00;;;6.31;82.19
9439;BME280;5176;42.622;25.386;2023-03-20T01:41:52;97533.81;;;6.34;81.12
9439;BME280;5176;42.622;25.386;2023-03-20T01:44:25;97528.50;;;6.37;81.04
9439;BME280;5176;42.622;25.386;2023-03-20T01:46:56;97528.66;;;6.32;80.73
9439;BME280;5176;42.622;25.386;2023-03-20T01:52:33;97523.63;;;6.07;84.16
9439;BME280;5176;42.622;25.386;2023-03-20T01:55:02;97524.63;;;6.05;84.82
9439;BME280;5176;42.622;25.386;2023-03-20T01:57:31;97528.13;;;6.04;84.42
9439;BME280;5176;42.622;25.386;2023-03-20T02:00:06;97529.06;;;6.03;84.66
9439;BME280;5176;42.622;25.386;2023-03-20T02:02:39;97524.69;;;6.03;84.26
9439;BME280;5176;42.622;25.386;2023-03-20T02:05:10;97533.91;;;5.88;84.94
9439;BME280;5176;42.622;25.386;2023-03-20T02:07:44;97530.91;;;5.77;85.47
9439;BME280;5176;42.622;25.386;2023-03-20T02:10:15;97531.47;;;5.63;87.26
9439;BME280;5176;42.622;25.386;2023-03-20T02:12:46;97524.84;;;5.55;87.55
9439;BME280;5176;42.622;25.386;2023-03-20T02:15:18;97519.41;;;5.61;87.59
9439;BME280;5176;42.622;25.386;2023-03-20T02:17:47;97518.75;;;5.56;87.54
9439;BME280;5176;42.622;25.386;2023-03-20T02:20:29;97516.34;;;5.51;87.78
9439;BME280;5176;42.622;25.386;2023-03-20T02:23:39;97517.03;;;5.55;88.35
9439;BME280;5176;42.622;25.386;2023-03-20T02:26:30;97515.13;;;5.38;88.41
9439;BME280;5176;42.622;25.386;2023-03-20T02:29:30;97512.34;;;5.42;88.35
9439;BME280;5176;42.622;25.386;2023-03-20T02:32:38;97514.44;;;5.33;88.16
9439;BME280;5176;42.622;25.386;2023-03-20T02:35:34;97512.66;;;5.11;89.31
9439;BME280;5176;42.622;25.386;2023-03-20T02:38:18;97514.41;;;5.11;90.43
9439;BME280;5176;42.622;25.386;2023-03-20T02:40:57;97523.06;;;5.11;91.49
9439;BME280;5176;42.622;25.386;2023-03-20T02:43:47;97509.94;;;5.14;91.42
9439;BME280;5176;42.622;25.386;2023-03-20T02:46:25;97514.91;;;5.20;91.07
9439;BME280;5176;42.622;25.386;2023-03-20T02:49:00;97516.66;;;5.20;90.53
9439;BME280;5176;42.622;25.386;2023-03-20T02:51:36;97501.81;;;5.24;90.77
9439;BME280;5176;42.622;25.386;2023-03-20T02:54:12;97501.03;;;5.22;90.40
9439;BME280;5176;42.622;25.386;2023-03-20T02:56:49;97506.16;;;5.23;91.40
9439;BME280;5176;42.622;25.386;2023-03-20T02:59:30;97493.22;;;5.22;91.17
9439;BME280;5176;42.622;25.386;2023-03-20T03:02:06;97495.63;;;5.26;91.85
9439;BME280;5176;42.622;25.386;2023-03-20T03:04:54;97490.44;;;5.26;91.03
9439;BME280;5176;42.622;25.386;2023-03-20T03:07:27;97498.69;;;5.37;90.41
9439;BME280;5176;42.622;25.386;2023-03-20T03:10:02;97499.34;;;5.42;89.82
9439;BME280;5176;42.622;25.386;2023-03-20T03:12:36;97489.78;;;5.43;89.51
9439;BME280;5176;42.622;25.386;2023-03-20T03:15:12;97487.13;;;5.44;89.06
9439;BME280;5176;42.622;25.386;2023-03-20T03:17:44;97489.56;;;5.49;89.03
9439;BME280;5176;42.622;25.386;2023-03-20T03:20:20;97492.69;;;5.57;88.16
9439;BME280;5176;42.622;25.386;2023-03-20T03:22:50;97497.81;;;5.59;86.95
9439;BME280;5176;42.622;25.386;2023-03-20T03:25:24;97484.88;;;5.57;88.34
9439;BME280;5176;42.622;25.386;2023-03-20T03:28:02;97489.41;;;5.52;89.02
9439;BME280;5176;42.622;25.386;2023-03-20T03:30:35;97486.75;;;5.54;89.05
9439;BME280;5176;42.622;25.386;2023-03-20T03:33:13;97485.06;;;5.53;89.86
9439;BME280;5176;42.622;25.386;2023-03-20T03:35:43;97489.31;;;5.55;89.93
9439;BME280;5176;42.622;25.386;2023-03-20T03:38:24;97495.22;;;5.59;90.11
9439;BME280;5176;42.622;25.386;2023-03-20T03:41:05;97487.41;;;5.59;89.69
9439;BME280;5176;42.622;25.386;2023-03-20T03:43:41;97483.91;;;5.60;89.57
9439;BME280;5176;42.622;25.386;2023-03-20T03:46:18;97480.59;;;5.56;89.26
9439;BME280;5176;42.622;25.386;2023-03-20T03:48:52;97479.94;;;5.51;90.08
9439;BME280;5176;42.622;25.386;2023-03-20T03:51:28;97480.84;;;5.50;89.18
9439;BME280;5176;42.622;25.386;2023-03-20T03:54:01;97475.81;;;5.45;88.11
9439;BME280;5176;42.622;25.386;2023-03-20T03:56:34;97484.69;;;5.40;88.50
9439;BME280;5176;42.622;25.386;2023-03-20T03:59:09;97485.78;;;5.34;89.15
9439;BME280;5176;42.622;25.386;2023-03-20T04:01:41;97474.00;;;5.26;89.53
9439;BME280;5176;42.622;25.386;2023-03-20T04:04:13;97468.84;;;5.24;89.67
9439;BME280;5176;42.622;25.386;2023-03-20T04:06:43;97478.59;;;5.19;90.78
9439;BME280;5176;42.622;25.386;2023-03-20T04:09:13;97471.75;;;5.16;91.19
9439;BME280;5176;42.622;25.386;2023-03-20T04:11:47;97476.13;;;5.16;91.43
9439;BME280;5176;42.622;25.386;2023-03-20T04:14:18;97475.44;;;5.11;92.33
9439;BME280;5176;42.622;25.386;2023-03-20T04:16:47;97479.78;;;5.10;92.06
9439;BME280;5176;42.622;25.386;2023-03-20T04:19:17;97478.34;;;5.03;92.36
9439;BME280;5176;42.622;25.386;2023-03-20T04:21:47;97485.56;;;4.95;92.15
9439;BME280;5176;42.622;25.386;2023-03-20T04:24:16;97484.75;;;4.93;93.22
9439;BME280;5176;42.622;25.386;2023-03-20T04:26:47;97488.19;;;4.93;92.78
9439;BME280;5176;42.622;25.386;2023-03-20T04:29:16;97488.34;;;4.90;92.62
9439;BME280;5176;42.622;25.386;2023-03-20T04:31:45;97492.00;;;4.85;92.85
9439;BME280;5176;42.622;25.386;2023-03-20T04:34:15;97500.63;;;4.85;92.30
9439;BME280;5176;42.622;25.386;2023-03-20T04:36:43;97499.72;;;4.86;91.58
9439;BME280;5176;42.622;25.386;2023-03-20T04:39:13;97507.47;;;4.88;90.69
9439;BME280;5176;42.622;25.386;2023-03-20T04:41:42;97504.84;;;4.88;90.45
9439;BME280;5176;42.622;25.386;2023-03-20T04:44:13;97508.66;;;4.79;90.13
9439;BME280;5176;42.622;25.386;2023-03-20T04:46:42;97506.50;;;4.67;89.72
9439;BME280;5176;42.622;25.386;2023-03-20T04:49:11;97513.94;;;4.53;89.48
9439;BME280;5176;42.622;25.386;2023-03-20T04:51:40;97519.25;;;4.50;89.11
9439;BME280;5176;42.622;25.386;2023-03-20T04:54:08;97525.38;;;4.47;89.42
9439;BME280;5176;42.622;25.386;2023-03-20T04:56:37;97526.47;;;4.42;89.94
9439;BME280;5176;42.622;25.386;2023-03-20T04:59:06;97523.22;;;4.35;90.50
9439;BME280;5176;42.622;25.386;2023-03-20T05:01:37;97528.28;;;4.38;91.03
9439;BME280;5176;42.622;25.386;2023-03-20T05:04:06;97523.09;;;4.38;91.96
9439;BME280;5176;42.622;25.386;2023-03-20T05:06:35;97527.38;;;4.39;92.46
9439;BME280;5176;42.622;25.386;2023-03-20T05:09:04;97519.53;;;4.41;93.73
9439;BME280;5176;42.622;25.386;2023-03-20T05:11:34;97516.78;;;4.45;93.68
9439;BME280;5176;42.622;25.386;2023-03-20T05:14:02;97515.81;;;4.49;93.79
9439;BME280;5176;42.622;25.386;2023-03-20T05:16:32;97512.81;;;4.60;93.88
9439;BME280;5176;42.622;25.386;2023-03-20T05:19:03;97506.63;;;4.64;93.94
9439;BME280;5176;42.622;25.386;2023-03-20T05:21:32;97507.88;;;4.77;94.25
9439;BME280;5176;42.622;25.386;2023-03-20T05:24:01;97515.25;;;4.88;93.69
9439;BME280;5176;42.622;25.386;2023-03-20T05:26:30;97513.25;;;4.96;93.98
9439;BME280;5176;42.622;25.386;2023-03-20T05:28:59;97511.97;;;5.06;94.50
9439;BME280;5176;42.622;25.386;2023-03-20T05:31:28;97504.72;;;5.14;95.14
9439;BME280;5176;42.622;25.386;2023-03-20T05:33:57;97502.94;;;5.16;95.69
9439;BME280;5176;42.622;25.386;2023-03-20T05:36:29;97509.66;;;5.22;95.79
9439;BME280;5176;42.622;25.386;2023-03-20T05:38:58;97509.53;;;5.25;96.26
9439;BME280;5176;42.622;25.386;2023-03-20T05:41:26;97516.03;;;5.37;96.10
9439;BME280;5176;42.622;25.386;2023-03-20T05:43:55;97513.00;;;5.47;95.33
9439;BME280;5176;42.622;25.386;2023-03-20T05:46:24;97515.97;;;5.60;95.07
9439;BME280;5176;42.622;25.386;2023-03-20T05:48:53;97516.88;;;5.59;95.12
9439;BME280;5176;42.622;25.386;2023-03-20T05:51:22;97506.97;;;5.69;95.70
9439;BME280;5176;42.622;25.386;2023-03-20T05:53:53;97517.31;;;5.92;95.49
9439;BME280;5176;42.622;25.386;2023-03-20T05:56:22;97511.28;;;6.12;94.80
9439;BME280;5176;42.622;25.386;2023-03-20T05:58:51;97511.94;;;6.38;94.03
9439;BME280;5176;42.622;25.386;2023-03-20T06:01:19;97504.69;;;6.65;93.49
9439;BME280;5176;42.622;25.386;2023-03-20T06:03:49;97506.91;;;6.93;91.69
9439;BME280;5176;42.622;25.386;2023-03-20T06:06:18;97498.06;;;7.16;90.21
9439;BME280;5176;42.622;25.386;2023-03-20T06:08:46;97504.81;;;7.38;87.83
9439;BME280;5176;42.622;25.386;2023-03-20T06:11:17;97507.03;;;7.65;85.90
9439;BME280;5176;42.622;25.386;2023-03-20T06:13:45;97504.16;;;7.88;84.46
9439;BME280;5176;42.622;25.386;2023-03-20T06:16:15;97507.16;;;8.15;82.63
9439;BME280;5176;42.622;25.386;2023-03-20T06:18:44;97503.94;;;8.28;80.91
9439;BME280;5176;42.622;25.386;2023-03-20T06:21:13;97502.00;;;8.50;80.62
9439;BME280;5176;42.622;25.386;2023-03-20T06:23:41;97512.31;;;8.69;78.58
9439;BME280;5176;42.622;25.386;2023-03-20T06:26:10;97506.97;;;8.88;77.51
9439;BME280;5176;42.622;25.386;2023-03-20T06:28:42;97506.84;;;9.07;76.10
9439;BME280;5176;42.622;25.386;2023-03-20T06:31:11;97502.66;;;9.20;75.01
9439;BME280;5176;42.622;25.386;2023-03-20T06:33:40;97498.03;;;9.41;75.28
9439;BME280;5176;42.622;25.386;2023-03-20T06:36:09;97510.59;;;9.66;74.28
9439;BME280;5176;42.622;25.386;2023-03-20T06:38:39;97507.94;;;9.81;74.51
9439;BME280;5176;42.622;25.386;2023-03-20T06:41:07;97498.03;;;10.02;72.74
9439;BME280;5176;42.622;25.386;2023-03-20T06:43:37;97504.19;;;10.17;72.55
9439;BME280;5176;42.622;25.386;2023-03-20T06:46:07;97497.63;;;10.40;71.10
9439;BME280;5176;42.622;25.386;2023-03-20T06:48:36;97497.53;;;10.56;70.82
9439;BME280;5176;42.622;25.386;2023-03-20T06:51:06;97496.06;;;10.66;69.47
9439;BME280;5176;42.622;25.386;2023-03-20T06:53:35;97496.75;;;10.84;69.33
9439;BME280;5176;42.622;25.386;2023-03-20T06:56:06;97497.22;;;10.90;68.64
9439;BME280;5176;42.622;25.386;2023-03-20T06:58:35;97500.47;;;11.08;68.46
9439;BME280;5176;42.622;25.386;2023-03-20T07:01:09;97495.44;;;11.19;66.01
9439;BME280;5176;42.622;25.386;2023-03-20T07:03:39;97498.31;;;11.15;65.55
9439;BME280;5176;42.622;25.386;2023-03-20T07:06:08;97501.06;;;11.13;67.01
9439;BME280;5176;42.622;25.386;2023-03-20T07:08:38;97498.31;;;11.15;66.49
9439;BME280;5176;42.622;25.386;2023-03-20T07:11:07;97494.31;;;11.24;66.24
9439;BME280;5176;42.622;25.386;2023-03-20T07:13:37;97496.72;;;11.27;66.45
9439;BME280;5176;42.622;25.386;2023-03-20T07:16:06;97492.50;;;11.38;65.81
9439;BME280;5176;42.622;25.386;2023-03-20T07:18:37;97489.91;;;11.65;66.02
9439;BME280;5176;42.622;25.386;2023-03-20T07:21:06;97486.34;;;11.93;64.68
9439;BME280;5176;42.622;25.386;2023-03-20T07:23:36;97490.19;;;12.15;63.61
9439;BME280;5176;42.622;25.386;2023-03-20T07:26:05;97486.78;;;12.40;63.04
9439;BME280;5176;42.622;25.386;2023-03-20T07:28:34;97489.03;;;12.71;61.83
9439;BME280;5176;42.622;25.386;2023-03-20T07:31:03;97484.19;;;12.91;60.90
9439;BME280;5176;42.622;25.386;2023-03-20T07:33:33;97485.31;;;13.12;59.13
9439;BME280;5176;42.622;25.386;2023-03-20T07:36:04;97485.63;;;13.33;58.10
9439;BME280;5176;42.622;25.386;2023-03-20T07:38:32;97482.94;;;13.58;57.46
9439;BME280;5176;42.622;25.386;2023-03-20T07:41:01;97487.34;;;13.82;55.94
9439;BME280;5176;42.622;25.386;2023-03-20T07:43:30;97484.84;;;14.04;55.12
9439;BME280;5176;42.622;25.386;2023-03-20T07:46:01;97484.50;;;14.09;55.00
9439;BME280;5176;42.622;25.386;2023-03-20T07:48:30;97481.31;;;14.28;54.41
9439;BME280;5176;42.622;25.386;2023-03-20T07:50:58;97478.91;;;14.49;53.57
9439;BME280;5176;42.622;25.386;2023-03-20T07:53:30;97483.97;;;14.63;53.01
9439;BME280;5176;42.622;25.386;2023-03-20T07:55:58;97482.69;;;14.91;52.10
9439;BME280;5176;42.622;25.386;2023-03-20T07:58:27;97482.47;;;15.16;50.86
9439;BME280;5176;42.622;25.386;2023-03-20T08:00:56;97482.94;;;15.21;50.35
9439;BME280;5176;42.622;25.386;2023-03-20T08:03:26;97481.38;;;15.19;50.47
9439;BME280;5176;42.622;25.386;2023-03-20T08:05:55;97479.09;;;15.25;50.04
9439;BME280;5176;42.622;25.386;2023-03-20T08:08:23;97477.66;;;15.33;49.68
9439;BME280;5176;42.622;25.386;2023-03-20T08:10:53;97478.81;;;15.51;49.38
9439;BME280;5176;42.622;25.386;2023-03-20T08:13:23;97465.59;;;15.73;48.78
9439;BME280;5176;42.622;25.386;2023-03-20T08:15:52;97469.94;;;16.06;48.19
9439;BME280;5176;42.622;25.386;2023-03-20T08:18:21;97473.19;;;16.31;47.30
9439;BME280;5176;42.622;25.386;2023-03-20T08:20:50;97464.88;;;16.35;47.47
9439;BME280;5176;42.622;25.386;2023-03-20T08:23:19;97471.38;;;16.31;46.31
9439;BME280;5176;42.622;25.386;2023-03-20T08:25:48;97464.66;;;16.06;46.68
9439;BME280;5176;42.622;25.386;2023-03-20T08:28:19;97465.50;;;16.07;46.42
9439;BME280;5176;42.622;25.386;2023-03-20T08:30:48;97474.28;;;16.28;46.22
9439;BME280;5176;42.622;25.386;2023-03-20T08:33:17;97468.16;;;16.28;45.81
9439;BME280;5176;42.622;25.386;2023-03-20T08:35:54;97464.53;;;16.29;45.77
9439;BME280;5176;42.622;25.386;2023-03-20T08:38:23;97458.47;;;16.38;45.49
9439;BME280;5176;42.622;25.386;2023-03-20T08:40:52;97455.97;;;16.57;45.55
9439;BME280;5176;42.622;25.386;2023-03-20T08:43:23;97454.56;;;16.74;44.75
9439;BME280;5176;42.622;25.386;2023-03-20T08:45:53;97454.09;;;16.90;44.61
9439;BME280;5176;42.622;25.386;2023-03-20T08:48:22;97443.56;;;17.00;43.83
9439;BME280;5176;42.622;25.386;2023-03-20T08:50:52;97450.31;;;17.13;43.91
9439;BME280;5176;42.622;25.386;2023-03-20T08:53:22;97443.91;;;17.16;43.14
9439;BME280;5176;42.622;25.386;2023-03-20T08:55:51;97440.19;;;17.38;43.39
9439;BME280;5176;42.622;25.386;2023-03-20T08:58:20;97438.88;;;17.63;42.80
9439;BME280;5176;42.622;25.386;2023-03-20T09:00:51;97441.94;;;17.68;42.16
9439;BME280;5176;42.622;25.386;2023-03-20T09:03:20;97442.41;;;17.83;42.28
9439;BME280;5176;42.622;25.386;2023-03-20T09:05:50;97450.38;;;17.83;42.17
9439;BME280;5176;42.622;25.386;2023-03-20T09:08:19;97442.28;;;18.04;41.61
9439;BME280;5176;42.622;25.386;2023-03-20T09:10:48;97436.56;;;18.18;41.49
9439;BME280;5176;42.622;25.386;2023-03-20T09:13:17;97442.28;;;18.33;41.04
9439;BME280;5176;42.622;25.386;2023-03-20T09:15:46;97441.44;;;18.42;41.62
9439;BME280;5176;42.622;25.386;2023-03-20T09:18:18;97444.31;;;18.58;40.81
9439;BME280;5176;42.622;25.386;2023-03-20T09:20:47;97426.00;;;18.65;40.79
9439;BME280;5176;42.622;25.386;2023-03-20T09:23:17;97428.38;;;18.77;40.29
9439;BME280;5176;42.622;25.386;2023-03-20T09:25:46;97431.16;;;18.86;40.84
9439;BME280;5176;42.622;25.386;2023-03-20T09:28:15;97433.63;;;19.07;40.17
9439;BME280;5176;42.622;25.386;2023-03-20T09:30:44;97423.50;;;19.20;40.43
9439;BME280;5176;42.622;25.386;2023-03-20T09:33:13;97420.13;;;19.18;39.88
9439;BME280;5176;42.622;25.386;2023-03-20T09:35:44;97422.09;;;19.16;39.71
9439;BME280;5176;42.622;25.386;2023-03-20T09:38:13;97422.59;;;19.29;40.32
9439;BME280;5176;42.622;25.386;2023-03-20T09:40:50;97424.47;;;19.46;39.42
9439;BME280;5176;42.622;25.386;2023-03-20T09:43:33;97424.47;;;19.46;39.43
9439;BME280;5176;42.622;25.386;2023-03-20T09:46:14;97418.28;;;19.46;39.46
9439;BME280;5176;42.622;25.386;2023-03-20T09:48:48;97405.38;;;19.51;39.02
9439;BME280;5176;42.622;25.386;2023-03-20T09:51:28;97408.75;;;19.53;39.27
9439;BME280;5176;42.622;25.386;2023-03-20T09:54:02;97404.53;;;19.60;38.45
9439;BME280;5176;42.622;25.386;2023-03-20T09:56:33;97409.16;;;19.58;37.92
9439;BME280;5176;42.622;25.386;2023-03-20T09:59:04;97403.84;;;19.58;38.30
9439;BME280;5176;42.622;25.386;2023-03-20T10:01:41;97395.06;;;19.75;38.26
9439;BME280;5176;42.622;25.386;2023-03-20T10:04:12;97395.97;;;19.84;37.66
9439;BME280;5176;42.622;25.386;2023-03-20T10:06:42;97396.88;;;19.75;37.54
9439;BME280;5176;42.622;25.386;2023-03-20T10:09:15;97392.19;;;19.86;37.92
9439;BME280;5176;42.622;25.386;2023-03-20T10:12:03;97392.22;;;20.12;37.49
9439;BME280;5176;42.622;25.386;2023-03-20T10:14:46;97389.53;;;20.12;36.82
9439;BME280;5176;42.622;25.386;2023-03-20T10:17:33;97389.03;;;20.09;37.06
9439;BME280;5176;42.622;25.386;2023-03-20T10:20:10;97390.25;;;19.97;37.72
9439;BME280;5176;42.622;25.386;2023-03-20T10:22:46;97378.09;;;19.94;37.43
9439;BME280;5176;42.622;25.386;2023-03-20T10:25:22;97383.72;;;19.91;37.32
9439;BME280;5176;42.622;25.386;2023-03-20T10:27:56;97352.56;;;19.83;37.15
9439;BME280;5176;42.622;25.386;2023-03-20T10:30:46;97367.59;;;20.10;36.88
9439;BME280;5176;42.622;25.386;2023-03-20T10:33:25;97365.19;;;20.25;36.26
9439;BME280;5176;42.622;25.386;2023-03-20T10:36:08;97362.69;;;20.24;36.43
9439;BME280;5176;42.622;25.386;2023-03-20T10:38:46;97364.59;;;20.31;36.32
9439;BME280;5176;42.622;25.386;2023-03-20T10:41:23;97358.63;;;20.37;37.76
9439;BME280;5176;42.622;25.386;2023-03-20T10:43:55;97357.50;;;20.66;37.46
9439;BME280;5176;42.622;25.386;2023-03-20T10:46:27;97347.66;;;20.92;36.67
9439;BME280;5176;42.622;25.386;2023-03-20T10:49:00;97345.22;;;21.07;35.88
9439;BME280;5176;42.622;25.386;2023-03-20T10:51:37;97335.72;;;21.05;35.73
9439;BME280;5176;42.622;25.386;2023-03-20T10:54:20;97337.81;;;21.27;35.20
9439;BME280;5176;42.622;25.386;2023-03-20T10:56:51;97337.66;;;21.29;35.28
9439;BME280;5176;42.622;25.386;2023-03-20T10:59:24;97322.47;;;21.21;35.92
9439;BME280;5176;42.622;25.386;2023-03-20T11:01:54;97332.59;;;21.26;36.04
9439;BME280;5176;42.622;25.386;2023-03-20T11:04:23;97316.75;;;21.08;35.65
9439;BME280;5176;42.622;25.386;2023-03-20T11:06:57;97312.41;;;21.07;35.88
9439;BME280;5176;42.622;25.386;2023-03-20T11:09:30;97302.44;;;21.17;36.44
9439;BME280;5176;42.622;25.386;2023-03-20T11:12:00;97296.19;;;20.92;35.48
9439;BME280;5176;42.622;25.386;2023-03-20T11:14:33;97292.38;;;20.94;34.55
9439;BME280;5176;42.622;25.386;2023-03-20T11:17:03;97295.06;;;20.94;33.56
9439;BME280;5176;42.622;25.386;2023-03-20T11:19:34;97288.94;;;21.10;34.26
9439;BME280;5176;42.622;25.386;2023-03-20T11:22:07;97283.13;;;21.15;33.59
9439;BME280;5176;42.622;25.386;2023-03-20T11:24:40;97279.84;;;21.29;33.76
9439;BME280;5176;42.622;25.386;2023-03-20T11:27:13;97262.97;;;21.20;32.26
9439;BME280;5176;42.622;25.386;2023-03-20T11:29:46;97272.81;;;21.20;30.99
9439;BME280;5176;42.622;25.386;2023-03-20T11:32:25;97266.22;;;21.40;32.41
9439;BME280;5176;42.622;25.386;2023-03-20T11:34:55;97268.22;;;21.55;33.96
9439;BME280;5176;42.622;25.386;2023-03-20T11:37:26;97268.69;;;21.58;34.03
9439;BME280;5176;42.622;25.386;2023-03-20T11:39:59;97265.84;;;21.60;34.11
9439;BME280;5176;42.622;25.386;2023-03-20T11:42:29;97259.34;;;21.46;33.54
9439;BME280;5176;42.622;25.386;2023-03-20T11:45:01;97258.78;;;21.18;33.85
9439;BME280;5176;42.622;25.386;2023-03-20T11:47:32;97256.66;;;21.21;34.56
9439;BME280;5176;42.622;25.386;2023-03-20T11:50:04;97240.31;;;21.25;34.09
9439;BME280;5176;42.622;25.386;2023-03-20T11:52:34;97235.97;;;21.07;34.86
9439;BME280;5176;42.622;25.386;2023-03-20T11:55:19;97238.19;;;21.36;35.08
9439;BME280;5176;42.622;25.386;2023-03-20T11:57:55;97225.03;;;21.59;34.20
9439;BME280;5176;42.622;25.386;2023-03-20T12:00:27;97224.03;;;21.76;34.11
9439;BME280;5176;42.622;25.386;2023-03-20T12:02:57;97233.34;;;21.72;33.69
9439;BME280;5176;42.622;25.386;2023-03-20T12:05:31;97214.84;;;21.79;34.13
9439;BME280;5176;42.622;25.386;2023-03-20T12:08:02;97222.31;;;21.92;32.92
9439;BME280;5176;42.622;25.386;2023-03-20T12:10:38;97218.50;;;21.94;33.20
9439;BME280;5176;42.622;25.386;2023-03-20T12:13:14;97221.81;;;22.04;31.74
9439;BME280;5176;42.622;25.386;2023-03-20T12:15:46;97211.00;;;22.14;31.46
9439;BME280;5176;42.622;25.386;2023-03-20T12:18:24;97214.31;;;22.16;31.67
9439;BME280;5176;42.622;25.386;2023-03-20T12:21:03;97209.47;;;22.03;31.37
9439;BME280;5176;42.622;25.386;2023-03-20T12:23:37;97208.13;;;22.08;31.45
9439;BME280;5176;42.622;25.386;2023-03-20T12:26:11;97201.78;;;22.17;31.54
9439;BME280;5176;42.622;25.386;2023-03-20T12:28:46;97198.94;;;22.18;30.95
9439;BME280;5176;42.622;25.386;2023-03-20T12:31:22;97199.38;;;22.38;31.80
9439;BME280;5176;42.622;25.386;2023-03-20T12:33:56;97185.00;;;22.39;31.07
9439;BME280;5176;42.622;25.386;2023-03-20T12:36:31;97182.16;;;22.49;30.79
9439;BME280;5176;42.622;25.386;2023-03-20T12:39:02;97176.31;;;22.45;30.34
9439;BME280;5176;42.622;25.386;2023-03-20T12:41:39;97186.03;;;22.38;32.05
9439;BME280;5176;42.622;25.386;2023-03-20T12:44:32;97183.91;;;22.34;32.31
9439;BME280;5176;42.622;25.386;2023-03-20T12:47:14;97179.25;;;22.27;31.28
9439;BME280;5176;42.622;25.386;2023-03-20T12:49:55;97182.22;;;22.33;30.66
9439;BME280;5176;42.622;25.386;2023-03-20T12:52:36;97177.38;;;22.36;31.00
9439;BME280;5176;42.622;25.386;2023-03-20T12:55:20;97177.84;;;22.40;31.13
9439;BME280;5176;42.622;25.386;2023-03-20T12:58:02;97176.34;;;22.37;32.07
9439;BME280;5176;42.622;25.386;2023-03-20T13:00:34;97177.41;;;22.28;32.00
9439;BME280;5176;42.622;25.386;2023-03-20T13:03:33;97174.41;;;22.23;33.03
9439;BME280;5176;42.622;25.386;2023-03-20T13:06:10;97169.53;;;22.35;32.98
9439;BME280;5176;42.622;25.386;2023-03-20T13:08:56;97169.66;;;22.41;31.97
9439;BME280;5176;42.622;25.386;2023-03-20T13:11:34;97169.03;;;22.31;31.87
9439;BME280;5176;42.622;25.386;2023-03-20T13:14:11;97160.50;;;22.36;32.90
9439;BME280;5176;42.622;25.386;2023-03-20T13:16:46;97153.47;;;22.43;33.27
9439;BME280;5176;42.622;25.386;2023-03-20T13:19:24;97148.59;;;22.46;33.32
9439;BME280;5176;42.622;25.386;2023-03-20T13:21:58;97156.41;;;22.56;33.17
9439;BME280;5176;42.622;25.386;2023-03-20T13:24:36;97160.38;;;22.60;32.96
9439;BME280;5176;42.622;25.386;2023-03-20T13:27:25;97152.13;;;22.39;33.06
9439;BME280;5176;42.622;25.386;2023-03-20T13:30:00;97159.75;;;22.11;33.34
9439;BME280;5176;42.622;25.386;2023-03-20T13:32:38;97157.56;;;22.06;33.54
9439;BME280;5176;42.622;25.386;2023-03-20T13:35:21;97163.25;;;22.11;33.57
9439;BME280;5176;42.622;25.386;2023-03-20T13:37:54;97155.06;;;22.13;33.50
9439;BME280;5176;42.622;25.386;2023-03-20T13:40:26;97158.03;;;22.34;32.61
9439;BME280;5176;42.622;25.386;2023-03-20T13:42:59;97165.91;;;22.27;32.78
9439;BME280;5176;42.622;25.386;2023-03-20T13:45:36;97158.38;;;22.23;33.46
9439;BME280;5176;42.622;25.386;2023-03-20T13:48:24;97157.69;;;22.29;34.32
9439;BME280;5176;42.622;25.386;2023-03-20T13:50:59;97149.88;;;22.27;35.51